createdAt,value
2022-10-23T00:01:44.633Z,63.59
2022-10-23T00:04:16.027Z,63.42
2022-10-23T00:06:44.176Z,63.29
2022-10-23T00:09:13.064Z,63.65
2022-10-23T00:11:40.309Z,63.25
2022-10-23T00:14:08.480Z,63.44
2022-10-23T00:16:35.527Z,63.38
2022-10-23T00:19:02.863Z,63.48
2022-10-23T00:21:29.792Z,63.54
2022-10-23T00:23:56.790Z,63.49
2022-10-23T00:26:23.741Z,63.20
2022-10-23T00:28:52.667Z,63.42
2022-10-23T00:31:21.809Z,63.28
2022-10-23T00:33:48.779Z,63.64
2022-10-23T00:36:18.123Z,62.79
2022-10-23T00:38:46.300Z,63.14
2022-10-23T00:41:24.326Z,63.29
2022-10-23T00:44:30.982Z,63.46
2022-10-23T00:46:59.109Z,63.33
2022-10-23T00:49:26.253Z,62.79
2022-10-23T00:51:57.140Z,63.44
2022-10-23T00:54:27.414Z,63.28
2022-10-23T00:56:58.427Z,63.30
2022-10-23T00:59:26.498Z,63.34
2022-10-23T01:01:53.861Z,63.28
2022-10-23T01:04:30.467Z,62.93
2022-10-23T01:07:03.975Z,62.80
2022-10-23T01:09:45.835Z,63.01
2022-10-23T01:12:19.451Z,62.80
2022-10-23T01:15:10.387Z,62.82
2022-10-23T01:17:51.182Z,62.76
2022-10-23T01:20:27.485Z,63.05
2022-10-23T01:23:13.070Z,63.02
2022-10-23T01:26:19.307Z,62.57
2022-10-23T01:28:56.863Z,62.68
2022-10-23T01:31:51.331Z,63.06
2022-10-23T01:34:23.461Z,63.00
2022-10-23T01:36:52.693Z,62.45
2022-10-23T01:39:29.536Z,62.69
2022-10-23T01:42:04.912Z,63.10
2022-10-23T01:44:41.507Z,62.59
2022-10-23T01:47:11.438Z,62.74
2022-10-23T01:50:03.096Z,62.80
2022-10-23T01:52:30.565Z,61.99
2022-10-23T01:55:01.279Z,62.33
2022-10-23T01:57:34.240Z,61.75
2022-10-23T02:00:07.253Z,62.11
2022-10-23T02:02:52.486Z,61.96
2022-10-23T02:05:24.033Z,61.54
2022-10-23T02:07:52.517Z,61.61
2022-10-23T02:10:20.455Z,61.21
2022-10-23T02:13:17.463Z,61.10
2022-10-23T02:16:00.759Z,61.32
2022-10-23T02:18:30.973Z,61.29
2022-10-23T02:21:18.365Z,60.88
2022-10-23T02:24:11.804Z,60.58
2022-10-23T02:26:53.812Z,60.92
2022-10-23T02:29:30.372Z,61.00
2022-10-23T02:32:11.009Z,60.60
2022-10-23T02:34:40.571Z,60.68
2022-10-23T02:37:09.585Z,60.40
2022-10-23T02:39:36.643Z,60.34
2022-10-23T02:42:25.910Z,60.72
2022-10-23T02:45:09.130Z,60.75
2022-10-23T02:47:59.842Z,60.98
2022-10-23T02:50:38.915Z,61.21
2022-10-23T02:53:11.780Z,61.17
2022-10-23T02:55:38.660Z,60.91
2022-10-23T02:58:13.268Z,60.50
2022-10-23T03:00:50.573Z,60.51
2022-10-23T03:03:40.655Z,60.99
2022-10-23T03:06:08.289Z,60.78
2022-10-23T03:08:52.413Z,60.92
2022-10-23T03:11:19.602Z,61.06
2022-10-23T03:13:46.596Z,61.18
2022-10-23T03:16:13.609Z,61.21
2022-10-23T03:18:40.547Z,60.95
2022-10-23T03:21:08.347Z,61.05
2022-10-23T03:23:35.406Z,61.55
2022-10-23T03:26:02.796Z,60.89
2022-10-23T03:28:35.838Z,60.96
2022-10-23T03:31:03.965Z,61.48
2022-10-23T03:33:31.827Z,60.73
2022-10-23T03:36:07.218Z,61.56
2022-10-23T03:38:35.397Z,61.09
2022-10-23T03:41:03.704Z,61.30
2022-10-23T03:43:59.831Z,61.41
2022-10-23T03:46:26.863Z,61.15
2022-10-23T03:48:54.848Z,61.41
2022-10-23T03:51:22.973Z,61.10
2022-10-23T03:53:50.169Z,60.88
2022-10-23T03:56:17.226Z,60.99
2022-10-23T03:58:44.864Z,61.14
2022-10-23T04:01:13.400Z,61.28
2022-10-23T04:04:06.669Z,61.38
2022-10-23T04:06:35.284Z,60.61
2022-10-23T04:09:02.249Z,61.07
2022-10-23T04:11:29.494Z,60.84
2022-10-23T04:14:06.656Z,60.65
2022-10-23T04:16:37.872Z,61.18
2022-10-23T04:19:06.172Z,60.56
2022-10-23T04:21:33.269Z,60.16
2022-10-23T04:24:01.201Z,60.56
2022-10-23T04:26:54.199Z,60.14
2022-10-23T04:29:22.851Z,60.18
2022-10-23T04:31:49.821Z,60.01
2022-10-23T04:34:17.954Z,59.83
2022-10-23T04:36:47.304Z,59.91
2022-10-23T04:39:14.874Z,60.26
2022-10-23T04:41:41.858Z,60.67
2022-10-23T04:44:08.769Z,59.61
2022-10-23T04:46:38.886Z,59.97
2022-10-23T04:49:05.950Z,59.72
2022-10-23T04:51:50.831Z,59.85
2022-10-23T04:54:39.769Z,60.14
2022-10-23T04:57:26.919Z,59.19
2022-10-23T05:00:00.636Z,58.78
2022-10-23T05:02:29.825Z,58.83
2022-10-23T05:04:56.821Z,59.25
2022-10-23T05:07:36.507Z,59.29
2022-10-23T05:10:13.370Z,59.16
2022-10-23T05:13:04.292Z,59.21
2022-10-23T05:15:31.303Z,59.28
2022-10-23T05:18:13.419Z,59.41
2022-10-23T05:20:41.081Z,59.17
2022-10-23T05:23:13.654Z,59.00
2022-10-23T05:25:48.189Z,58.77
2022-10-23T05:28:17.662Z,58.88
2022-10-23T05:30:45.111Z,58.82
2022-10-23T05:33:12.089Z,58.35
2022-10-23T05:35:44.249Z,58.30
2022-10-23T05:38:14.570Z,58.88
2022-10-23T05:40:42.294Z,58.30
2022-10-23T05:43:14.457Z,58.18
2022-10-23T05:45:56.034Z,57.95
2022-10-23T05:48:41.314Z,57.76
2022-10-23T05:51:26.215Z,58.05
2022-10-23T05:54:04.805Z,58.04
2022-10-23T05:56:38.216Z,57.71
2022-10-23T05:59:11.045Z,57.85
2022-10-23T06:01:48.198Z,57.79
2022-10-23T06:04:20.580Z,57.02
2022-10-23T06:07:29.125Z,57.32
2022-10-23T06:10:00.005Z,57.71
2022-10-23T06:12:27.369Z,57.15
2022-10-23T06:14:54.418Z,57.31
2022-10-23T06:17:28.421Z,57.14
2022-10-23T06:19:55.370Z,57.01
2022-10-23T06:22:22.420Z,56.79
2022-10-23T06:24:54.562Z,55.97
2022-10-23T06:27:25.725Z,55.63
2022-10-23T06:29:56.124Z,56.22
2022-10-23T06:32:39.410Z,56.11
2022-10-23T06:35:34.231Z,56.07
2022-10-23T06:38:04.307Z,55.66
2022-10-23T06:40:39.557Z,56.09
2022-10-23T06:43:15.897Z,55.72
2022-10-23T06:46:07.139Z,55.82
2022-10-23T06:48:57.232Z,55.98
2022-10-23T06:51:29.873Z,56.55
2022-10-23T06:53:57.570Z,56.31
2022-10-23T06:56:43.262Z,55.86
2022-10-23T06:59:39.424Z,56.28
2022-10-23T07:02:26.334Z,56.55
2022-10-23T07:04:53.301Z,55.58
2022-10-23T07:07:21.624Z,56.08
2022-10-23T07:09:49.736Z,55.88
2022-10-23T07:12:48.519Z,55.31
2022-10-23T07:15:51.146Z,55.49
2022-10-23T07:18:23.304Z,55.32
2022-10-23T07:21:09.246Z,55.42
2022-10-23T07:23:38.821Z,55.54
2022-10-23T07:26:16.201Z,55.66
2022-10-23T07:29:00.245Z,55.69
2022-10-23T07:31:28.466Z,55.39
2022-10-23T07:34:33.612Z,55.18
2022-10-23T07:37:24.967Z,55.46
2022-10-23T07:39:51.846Z,54.96
2022-10-23T07:42:18.900Z,54.90
2022-10-23T07:44:46.339Z,55.47
2022-10-23T07:47:13.248Z,54.76
2022-10-23T07:49:43.665Z,54.89
2022-10-23T07:52:10.639Z,55.55
2022-10-23T07:54:57.571Z,55.22
2022-10-23T07:57:26.047Z,54.94
2022-10-23T08:00:07.849Z,54.64
2022-10-23T08:02:40.968Z,54.32
2022-10-23T08:05:10.337Z,54.09
2022-10-23T08:07:48.348Z,54.07
2022-10-23T08:10:16.804Z,53.82
2022-10-23T08:12:44.752Z,53.87
2022-10-23T08:15:13.066Z,53.27
2022-10-23T08:17:51.722Z,53.30
2022-10-23T08:20:39.281Z,53.50
2022-10-23T08:23:06.731Z,53.16
2022-10-23T08:25:33.975Z,52.83
2022-10-23T08:28:04.218Z,52.93
2022-10-23T08:30:39.457Z,52.53
2022-10-23T08:33:07.360Z,52.71
2022-10-23T08:35:38.664Z,52.88
2022-10-23T08:38:06.759Z,52.79
2022-10-23T08:40:44.933Z,53.16
2022-10-23T08:43:37.606Z,52.53
2022-10-23T08:46:25.367Z,53.09
2022-10-23T08:49:21.292Z,52.55
2022-10-23T08:52:13.304Z,52.85
2022-10-23T08:54:49.499Z,52.59
2022-10-23T08:57:18.684Z,52.70
2022-10-23T08:59:54.689Z,52.05
2022-10-23T09:02:25.051Z,52.14
2022-10-23T09:05:16.360Z,52.07
2022-10-23T09:08:05.370Z,52.00
2022-10-23T09:11:09.579Z,52.59
2022-10-23T09:13:50.374Z,53.03
2022-10-23T09:16:41.776Z,53.36
2022-10-23T09:19:20.208Z,52.79
2022-10-23T09:21:49.705Z,53.25
2022-10-23T09:24:20.083Z,52.40
2022-10-23T09:26:50.360Z,53.02
2022-10-23T09:29:29.338Z,53.20
2022-10-23T09:31:58.878Z,52.89
2022-10-23T09:34:28.478Z,53.20
2022-10-23T09:37:04.193Z,52.40
2022-10-23T09:39:34.069Z,53.03
2022-10-23T09:42:23.839Z,53.29
2022-10-23T09:44:53.871Z,53.17
2022-10-23T09:47:24.685Z,52.76
2022-10-23T09:49:54.220Z,52.12
2022-10-23T09:52:33.752Z,52.20
2022-10-23T09:55:03.121Z,52.00
2022-10-23T09:57:43.140Z,52.39
2022-10-23T10:00:19.939Z,52.55
2022-10-23T10:03:00.094Z,52.10
2022-10-23T10:06:04.874Z,52.31
2022-10-23T10:08:48.828Z,52.26
2022-10-23T10:11:24.763Z,52.99
2022-10-23T10:14:14.746Z,53.13
2022-10-23T10:16:54.610Z,53.59
2022-10-23T10:19:46.036Z,54.23
2022-10-23T10:22:37.176Z,54.41
2022-10-23T10:25:25.927Z,54.48
2022-10-23T10:28:19.704Z,55.21
2022-10-23T10:31:12.272Z,55.02
2022-10-23T10:33:52.272Z,54.72
2022-10-23T10:36:31.179Z,55.02
2022-10-23T10:39:03.915Z,55.27
2022-10-23T10:41:58.938Z,54.95
2022-10-23T10:45:00.959Z,55.34
2022-10-23T10:47:41.569Z,54.53
2022-10-23T10:50:22.142Z,54.95
2022-10-23T10:54:07.744Z,55.35
2022-10-23T10:56:41.888Z,55.17
2022-10-23T10:59:29.309Z,54.74
2022-10-23T11:02:26.088Z,55.08
2022-10-23T11:05:00.240Z,54.30
2022-10-23T11:07:37.176Z,54.74
2022-10-23T11:10:16.023Z,54.98
2022-10-23T11:12:45.978Z,54.85
2022-10-23T11:15:20.786Z,55.01
2022-10-23T11:17:53.441Z,54.82
2022-10-23T11:20:56.807Z,55.22
2022-10-23T11:23:45.320Z,55.09
2022-10-23T11:26:20.270Z,54.78
2022-10-23T11:29:14.216Z,55.44
2022-10-23T11:32:02.671Z,55.17
2022-10-23T11:34:44.336Z,54.79
2022-10-23T11:37:16.923Z,55.20
2022-10-23T11:39:58.510Z,55.66
2022-10-23T11:42:40.595Z,55.15
2022-10-23T11:45:37.367Z,55.09
2022-10-23T11:48:39.514Z,55.32
2022-10-23T11:51:26.183Z,55.23
2022-10-23T11:53:53.161Z,55.69
2022-10-23T11:56:19.915Z,55.52
2022-10-23T11:58:52.258Z,55.72
2022-10-23T12:01:34.874Z,55.54
2022-10-23T12:04:14.197Z,55.66
2022-10-23T12:07:36.928Z,55.82
2022-10-23T12:10:23.029Z,55.97
2022-10-23T12:13:03.417Z,55.53
2022-10-23T12:15:33.003Z,55.77
2022-10-23T12:18:27.607Z,56.19
2022-10-23T12:20:58.675Z,56.16
2022-10-23T12:23:50.126Z,56.19
2022-10-23T12:26:16.989Z,57.04
2022-10-23T12:29:03.980Z,56.50
2022-10-23T12:31:33.741Z,56.47
2022-10-23T12:34:22.851Z,56.13
2022-10-23T12:37:11.527Z,56.76
2022-10-23T12:39:38.694Z,56.99
2022-10-23T12:42:17.433Z,57.13
2022-10-23T12:44:44.456Z,57.18
2022-10-23T12:47:18.181Z,57.10
2022-10-23T12:49:50.602Z,57.15
2022-10-23T12:52:19.903Z,57.70
2022-10-23T12:55:14.626Z,57.17
2022-10-23T12:57:42.568Z,56.87
2022-10-23T13:00:11.183Z,57.61
2022-10-23T13:02:38.237Z,57.64
2022-10-23T13:05:11.695Z,57.92
2022-10-23T13:07:44.356Z,57.89
2022-10-23T13:10:16.304Z,57.46
2022-10-23T13:13:04.009Z,57.78
2022-10-23T13:15:45.586Z,57.44
2022-10-23T13:18:14.697Z,57.54
2022-10-23T13:23:35.230Z,57.70
2022-10-23T13:26:06.849Z,57.41
2022-10-23T13:28:44.650Z,57.87
2022-10-23T13:31:14.581Z,57.32
2022-10-23T13:34:04.447Z,57.20
2022-10-23T13:36:36.335Z,57.69
2022-10-23T13:39:14.756Z,57.90
2022-10-23T13:41:44.610Z,57.22
2022-10-23T13:44:14.143Z,58.12
2022-10-23T13:46:41.597Z,58.10
2022-10-23T13:49:08.615Z,58.28
2022-10-23T13:51:53.880Z,57.96
2022-10-23T13:56:56.535Z,57.88
2022-10-23T13:59:46.982Z,57.67
2022-10-23T14:02:20.723Z,57.73
2022-10-23T14:04:48.914Z,59.13
2022-10-23T14:07:16.126Z,59.32
2022-10-23T14:09:51.414Z,59.79
2022-10-23T14:12:18.360Z,59.87
2022-10-23T14:14:45.227Z,60.28
2022-10-23T14:17:15.162Z,60.97
2022-10-23T14:19:42.060Z,60.76
2022-10-23T14:22:08.948Z,60.85
2022-10-23T14:24:36.118Z,62.20
2022-10-23T14:27:03.223Z,62.17
2022-10-23T14:29:30.335Z,61.66
2022-10-23T14:31:57.231Z,61.88
2022-10-23T14:34:24.166Z,61.82
2022-10-23T14:37:03.866Z,61.16
2022-10-23T14:39:34.786Z,61.66
2022-10-23T14:42:01.648Z,61.86
2022-10-23T14:44:28.596Z,61.86
2022-10-23T14:46:55.693Z,62.18
2022-10-23T14:49:22.617Z,61.79
2022-10-23T14:51:49.675Z,61.46
2022-10-23T14:54:16.774Z,61.48
2022-10-23T14:56:44.694Z,61.15
2022-10-23T14:59:11.638Z,61.59
2022-10-23T15:01:43.877Z,61.88
2022-10-23T15:04:12.841Z,61.38
2022-10-23T15:06:39.722Z,62.08
2022-10-23T15:09:06.805Z,62.21
2022-10-23T15:11:33.957Z,62.08
2022-10-23T15:14:01.602Z,61.69
2022-10-23T15:16:31.673Z,61.81
2022-10-23T15:18:59.815Z,61.92
2022-10-23T15:21:27.167Z,62.46
2022-10-23T15:24:06.160Z,62.86
2022-10-23T15:26:43.083Z,62.94
2022-10-23T15:29:17.299Z,62.77
2022-10-23T15:32:09.698Z,62.86
2022-10-23T15:34:43.907Z,63.15
2022-10-23T15:37:16.513Z,63.83
2022-10-23T15:39:52.119Z,62.73
2022-10-23T15:42:28.213Z,63.09
2022-10-23T15:45:34.777Z,63.04
2022-10-23T15:48:05.325Z,62.90
2022-10-23T15:54:20.401Z,63.38
2022-10-23T15:59:54.554Z,63.97
2022-10-23T16:02:48.232Z,64.10
2022-10-23T16:05:18.018Z,64.14
2022-10-23T16:07:53.458Z,64.43
2022-10-23T16:10:50.108Z,64.27
2022-10-23T16:13:21.942Z,64.46
2022-10-23T16:15:50.558Z,65.03
2022-10-23T16:18:18.562Z,64.21
2022-10-23T16:20:50.522Z,64.96
2022-10-23T16:23:23.378Z,64.88
2022-10-23T16:25:50.321Z,65.06
2022-10-23T16:28:39.492Z,65.04
2022-10-23T16:31:20.198Z,65.03
2022-10-23T16:33:50.720Z,64.98
2022-10-23T16:36:18.816Z,64.79
2022-10-23T16:39:24.215Z,64.94
2022-10-23T16:42:09.775Z,64.88
2022-10-23T16:44:57.082Z,64.86
2022-10-23T16:47:24.340Z,64.85
2022-10-23T16:49:56.819Z,65.21
2022-10-23T16:53:03.874Z,64.83
2022-10-23T16:55:22.545Z,64.90
2022-10-23T16:57:51.829Z,64.60
2022-10-23T17:00:22.660Z,65.33
2022-10-23T17:02:54.123Z,65.29
2022-10-23T17:05:25.535Z,65.36
2022-10-23T17:07:55.805Z,65.45
2022-10-23T17:10:32.294Z,65.45
2022-10-23T17:13:03.816Z,65.97
2022-10-23T17:15:30.748Z,66.66
2022-10-23T17:17:59.994Z,66.40
2022-10-23T17:20:29.287Z,66.60
2022-10-23T17:22:56.569Z,67.37
2022-10-23T17:25:23.571Z,67.51
2022-10-23T17:27:50.604Z,67.65
2022-10-23T17:30:18.187Z,68.05
2022-10-23T17:32:47.503Z,68.68
2022-10-23T17:35:18.511Z,68.13
2022-10-23T17:37:45.775Z,68.22
2022-10-23T17:40:14.963Z,68.82
2022-10-23T17:42:42.424Z,68.78
2022-10-23T17:45:10.753Z,68.74
2022-10-23T17:47:38.193Z,69.49
2022-10-23T17:50:06.079Z,68.73
2022-10-23T17:52:38.504Z,69.53
2022-10-23T17:55:10.214Z,69.91
2022-10-23T17:57:37.437Z,70.62
2022-10-23T18:00:06.005Z,69.40
2022-10-23T18:02:39.641Z,69.58
2022-10-23T18:05:07.067Z,69.71
2022-10-23T18:07:33.988Z,69.67
2022-10-23T18:10:00.972Z,69.92
2022-10-23T18:12:30.954Z,70.43
2022-10-23T18:14:58.038Z,70.41
2022-10-23T18:17:26.468Z,70.98
2022-10-23T18:19:59.560Z,71.30
2022-10-23T18:22:29.961Z,71.21
2022-10-23T18:24:58.680Z,71.42
2022-10-23T18:27:30.356Z,71.19
2022-10-23T18:29:58.708Z,71.25
2022-10-23T18:32:26.943Z,71.32
2022-10-23T18:34:54.325Z,71.67
2022-10-23T18:37:28.883Z,70.91
2022-10-23T18:40:02.534Z,72.26
2022-10-23T18:42:29.552Z,71.73
2022-10-23T18:44:59.763Z,72.38
2022-10-23T18:47:30.918Z,71.48
2022-10-23T18:50:01.433Z,71.05
2022-10-23T18:52:29.159Z,71.34
2022-10-23T18:54:59.443Z,72.00
2022-10-23T18:57:26.571Z,72.23
2022-10-23T18:59:56.487Z,72.09
2022-10-23T19:02:38.000Z,72.30
2022-10-23T19:05:07.213Z,71.90
2022-10-23T19:07:35.250Z,71.65
2022-10-23T19:10:02.434Z,71.73
2022-10-23T19:12:29.324Z,71.53
2022-10-23T19:14:56.250Z,71.28
2022-10-23T19:17:29.087Z,71.77
2022-10-23T19:20:01.840Z,71.40
2022-10-23T19:22:35.251Z,71.63
2022-10-23T19:25:08.673Z,71.64
2022-10-23T19:27:43.612Z,70.81
2022-10-23T19:30:12.071Z,71.76
2022-10-23T19:32:44.147Z,71.66
2022-10-23T19:35:13.882Z,71.35
2022-10-23T19:38:07.035Z,71.12
2022-10-23T19:41:00.021Z,71.72
2022-10-23T19:43:27.458Z,71.77
2022-10-23T19:45:54.237Z,72.49
2022-10-23T19:48:21.269Z,72.22
2022-10-23T19:50:50.293Z,72.22
2022-10-23T19:53:17.204Z,72.19
2022-10-23T19:56:33.037Z,72.07
2022-10-23T19:59:00.178Z,71.74
2022-10-23T20:01:27.422Z,72.05
2022-10-23T20:04:13.114Z,72.30
2022-10-23T20:06:40.456Z,72.49
2022-10-23T20:09:08.771Z,71.59
2022-10-23T20:11:38.869Z,71.95
2022-10-23T20:14:06.781Z,71.57
2022-10-23T20:16:36.887Z,71.90
2022-10-23T20:19:07.331Z,71.81
2022-10-23T20:21:44.008Z,71.93
2022-10-23T20:24:13.951Z,72.37
2022-10-23T20:26:43.051Z,72.33
2022-10-23T20:29:10.791Z,71.50
2022-10-23T20:31:37.935Z,72.79
2022-10-23T20:34:05.680Z,72.18
2022-10-23T20:36:43.742Z,71.80
2022-10-23T20:39:17.623Z,72.28
2022-10-23T20:41:44.620Z,72.17
2022-10-23T20:44:14.323Z,72.47
2022-10-23T20:46:42.059Z,72.49
2022-10-23T20:49:09.650Z,72.39
2022-10-23T20:51:36.718Z,72.55
2022-10-23T20:54:04.569Z,72.42
2022-10-23T20:56:34.144Z,72.37
2022-10-23T20:59:11.033Z,71.91
2022-10-23T21:01:49.655Z,71.69
2022-10-23T21:04:19.748Z,71.47
2022-10-23T21:07:08.971Z,71.39
2022-10-23T21:09:36.668Z,71.34
2022-10-23T21:12:03.735Z,71.93
2022-10-23T21:14:30.707Z,72.07
2022-10-23T21:16:57.556Z,71.59
2022-10-23T21:19:24.506Z,72.07
2022-10-23T21:21:59.952Z,71.90
2022-10-23T21:24:26.933Z,71.53
2022-10-23T21:26:53.760Z,72.42
2022-10-23T21:29:20.944Z,72.19
2022-10-23T21:31:55.642Z,71.82
2022-10-23T21:34:24.013Z,71.50
2022-10-23T21:37:11.932Z,71.70
2022-10-23T21:39:38.370Z,71.70
2022-10-23T21:42:05.273Z,71.48
2022-10-23T21:44:32.140Z,71.42
2022-10-23T21:46:58.937Z,71.32
2022-10-23T21:49:25.944Z,70.86
2022-10-23T21:51:52.762Z,71.31
2022-10-23T21:54:19.631Z,71.56
2022-10-23T21:56:48.770Z,71.78
2022-10-23T21:59:42.021Z,71.89
2022-10-23T22:02:09.036Z,71.70
2022-10-23T22:04:36.449Z,72.26
2022-10-23T22:07:04.536Z,72.31
2022-10-23T22:09:32.790Z,71.79
2022-10-23T22:12:00.852Z,71.39
2022-10-23T22:14:28.203Z,71.39
2022-10-23T22:16:55.154Z,71.28
2022-10-23T22:19:22.951Z,71.32
2022-10-23T22:21:50.995Z,71.47
2022-10-23T22:24:18.630Z,70.90
2022-10-23T22:26:52.137Z,72.15
2022-10-23T22:29:21.848Z,71.58
2022-10-23T22:31:50.101Z,70.99
2022-10-23T22:37:12.102Z,70.55
2022-10-23T22:39:39.475Z,71.51
2022-10-23T22:42:11.794Z,71.56
2022-10-23T22:44:38.800Z,71.21
2022-10-23T22:47:05.915Z,71.77
2022-10-23T22:49:33.029Z,71.78
2022-10-23T22:52:00.152Z,72.14
2022-10-23T22:54:27.595Z,72.10
2022-10-23T22:56:54.502Z,71.92
2022-10-23T22:59:21.373Z,72.20
2022-10-23T23:01:51.392Z,71.70
2022-10-23T23:04:37.418Z,72.58
2022-10-23T23:07:11.288Z,72.25
2022-10-23T23:09:43.455Z,71.89
2022-10-23T23:12:39.671Z,72.48
2022-10-23T23:15:07.351Z,71.99
2022-10-23T23:17:34.126Z,71.89
2022-10-23T23:20:01.103Z,72.13
2022-10-23T23:22:28.016Z,72.26
2022-10-23T23:24:55.066Z,72.09
2022-10-23T23:27:21.931Z,72.26
2022-10-23T23:29:49.182Z,71.73
2022-10-23T23:32:16.026Z,72.69
2022-10-23T23:34:43.014Z,72.55
2022-10-23T23:37:21.734Z,72.51
2022-10-23T23:40:06.928Z,72.66
2022-10-23T23:42:33.765Z,72.45
2022-10-23T23:45:13.610Z,72.48
2022-10-23T23:47:41.845Z,71.89
2022-10-23T23:50:11.161Z,72.49
2022-10-23T23:52:41.345Z,72.36
2022-10-23T23:55:08.570Z,71.99
2022-10-23T23:57:35.798Z,72.06
